Time;durP1;ratioP1;P1;durP2;ratioP2;P2;SDS_P1;SDS_P2;PMS_P1;PMS_P2;Temp;Humidity;BMP_temperature;BMP_pressure;BME280_temperature;BME280_humidity;BME280_pressure;Samples;Min_cycle;Max_cycle;Signal;HPM_P1;HPM_P2
2023/12/09 00:01:08;;;;;;;3.10;1.95;;;19.30;54.40;;;;;;5038982;28;20035;-66
2023/12/09 00:03:33;;;;;;;3.67;2.30;;;19.30;54.40;;;;;;5035870;28;20032;-66
2023/12/09 00:05:59;;;;;;;3.40;2.00;;;19.30;54.40;;;;;;5038734;28;20499;-66
2023/12/09 00:08:24;;;;;;;3.53;2.15;;;19.20;54.30;;;;;;5035508;28;20029;-66
2023/12/09 00:10:50;;;;;;;3.58;2.00;;;19.20;54.30;;;;;;5035573;28;20032;-66
2023/12/09 00:13:16;;;;;;;3.40;1.80;;;19.30;54.40;;;;;;5039445;28;20513;-66
2023/12/09 00:15:42;;;;;;;3.72;2.10;;;19.20;54.30;;;;;;5037159;28;20025;-66
2023/12/09 00:18:08;;;;;;;3.28;2.00;;;19.20;54.30;;;;;;5036904;28;20028;-65
2023/12/09 00:20:34;;;;;;;3.25;2.00;;;19.20;54.30;;;;;;5039367;28;20104;-65
2023/12/09 00:22:59;;;;;;;3.20;2.00;;;19.20;54.50;;;;;;5071767;28;20450;-66
2023/12/09 00:25:25;;;;;;;3.28;2.08;;;19.20;54.30;;;;;;5038649;28;20107;-66
2023/12/09 00:27:50;;;;;;;3.45;2.10;;;19.20;54.30;;;;;;5039066;28;20041;-67
2023/12/09 00:30:16;;;;;;;3.22;1.95;;;19.20;54.30;;;;;;5036255;28;20037;-65
2023/12/09 00:32:42;;;;;;;3.55;1.75;;;19.20;54.30;;;;;;5040726;28;20055;-65
2023/12/09 00:35:08;;;;;;;3.00;2.05;;;19.20;54.30;;;;;;5038088;28;20112;-66
2023/12/09 00:37:33;;;;;;;3.63;1.80;;;19.20;54.30;;;;;;5043426;28;20079;-66
2023/12/09 00:39:59;;;;;;;2.95;2.10;;;19.20;54.30;;;;;;5037735;28;20373;-65
2023/12/09 00:42:24;;;;;;;2.88;1.67;;;19.20;54.30;;;;;;5038307;28;20700;-66
2023/12/09 00:44:50;;;;;;;3.38;2.00;;;19.20;54.30;;;;;;5037033;28;20017;-66
2023/12/09 00:47:16;;;;;;;2.55;1.70;;;19.20;54.30;;;;;;5039011;28;20065;-66
2023/12/09 00:49:41;;;;;;;2.75;1.90;;;19.20;54.30;;;;;;5041230;28;20079;-65
2023/12/09 00:52:07;;;;;;;3.92;2.20;;;19.10;54.20;;;;;;5040398;28;20116;-66
2023/12/09 00:54:32;;;;;;;3.33;2.00;;;19.10;54.20;;;;;;5037386;28;20529;-66
2023/12/09 00:56:58;;;;;;;3.53;1.80;;;19.10;54.20;;;;;;5040581;28;20104;-69
2023/12/09 00:59:24;;;;;;;3.10;1.90;;;19.10;54.20;;;;;;5036741;28;20021;-69
2023/12/09 01:01:49;;;;;;;2.92;2.00;;;19.10;54.20;;;;;;5036505;28;20025;-69
2023/12/09 01:04:15;;;;;;;3.30;1.90;;;19.10;54.20;;;;;;5039960;28;20705;-69
2023/12/09 01:06:41;;;;;;;2.85;2.00;;;19.10;54.20;;;;;;5038756;28;20104;-69
2023/12/09 01:09:06;;;;;;;3.35;2.10;;;19.10;54.20;;;;;;5037996;28;20120;-69
2023/12/09 01:11:32;;;;;;;2.97;2.00;;;19.10;54.20;;;;;;5036629;28;20029;-69
2023/12/09 01:13:57;;;;;;;3.28;1.77;;;19.10;54.20;;;;;;5040069;28;20473;-69
2023/12/09 01:16:23;;;;;;;3.40;2.00;;;19.00;54.20;;;;;;5035949;28;20420;-66
2023/12/09 01:18:49;;;;;;;3.03;2.00;;;19.00;54.20;;;;;;5039239;28;20033;-66
2023/12/09 01:21:14;;;;;;;4.22;1.88;;;19.10;54.20;;;;;;5043059;28;20040;-66
2023/12/09 01:23:40;;;;;;;3.08;1.80;;;19.00;54.20;;;;;;5044070;28;20477;-66
2023/12/09 01:26:07;;;;;;;3.00;2.20;;;19.00;54.10;;;;;;5043649;28;20029;-65
2023/12/09 01:28:32;;;;;;;2.83;1.80;;;19.00;54.20;;;;;;5042293;28;20389;-65
2023/12/09 01:30:58;;;;;;;3.00;1.77;;;19.00;54.20;;;;;;5041797;28;20094;-66
2023/12/09 01:33:24;;;;;;;2.85;1.90;;;19.00;54.20;;;;;;5042742;28;20481;-66
2023/12/09 01:35:49;;;;;;;3.10;2.00;;;19.00;54.10;;;;;;5042253;28;20136;-65
2023/12/09 01:38:15;;;;;;;2.92;1.90;;;19.00;54.20;;;;;;5042525;28;20062;-66
2023/12/09 01:40:40;;;;;;;2.97;1.80;;;19.00;54.10;;;;;;5041419;28;20053;-65
2023/12/09 01:43:10;;;;;;;3.25;1.70;;;19.00;54.10;;;;;;5041514;28;20079;-66
2023/12/09 01:45:36;;;;;;;3.00;2.10;;;19.00;54.10;;;;;;5039634;28;20925;-65
2023/12/09 01:48:03;;;;;;;2.78;1.92;;;19.00;54.10;;;;;;5044011;28;20064;-65
2023/12/09 01:50:30;;;;;;;2.60;1.70;;;19.00;54.10;;;;;;5040447;28;20030;-67
2023/12/09 01:52:57;;;;;;;3.05;1.80;;;18.90;54.10;;;;;;5040859;28;20100;-66
2023/12/09 01:55:23;;;;;;;2.25;1.73;;;19.00;54.10;;;;;;5072357;28;20037;-65
2023/12/09 01:57:51;;;;;;;2.60;1.70;;;18.90;54.10;;;;;;5039690;28;20074;-65
2023/12/09 02:00:17;;;;;;;2.65;1.80;;;18.90;54.10;;;;;;5039348;28;20052;-65
2023/12/09 02:02:44;;;;;;;2.60;1.60;;;18.90;54.10;;;;;;5042374;28;20489;-65
2023/12/09 02:05:11;;;;;;;2.20;1.60;;;19.00;54.20;;;;;;5040971;28;20026;-66
2023/12/09 02:07:36;;;;;;;2.90;1.88;;;19.00;54.10;;;;;;5040592;28;20033;-65
2023/12/09 02:10:03;;;;;;;2.85;1.70;;;18.90;54.10;;;;;;5043623;28;20096;-65
2023/12/09 02:12:52;;;;;;;2.25;1.55;;;18.90;54.10;;;;;;5044184;28;20540;-66
2023/12/09 02:15:37;;;;;;;2.55;1.83;;;18.90;54.10;;;;;;5038608;28;20489;-65
2023/12/09 02:18:05;;;;;;;3.25;1.80;;;18.90;54.10;;;;;;5040294;28;20029;-67
2023/12/09 02:20:31;;;;;;;3.13;1.90;;;18.90;54.10;;;;;;5047808;28;20029;-66
2023/12/09 02:23:11;;;;;;;3.58;1.90;;;18.90;54.10;;;;;;5039981;28;20412;-65
2023/12/09 02:25:37;;;;;;;2.75;1.80;;;18.90;54.10;;;;;;5039481;28;20079;-65
2023/12/09 02:28:13;;;;;;;2.60;1.80;;;18.90;54.10;;;;;;5041372;28;20140;-69
2023/12/09 02:31:03;;;;;;;3.30;1.75;;;18.90;54.10;;;;;;5039390;28;20031;-69
2023/12/09 02:33:29;;;;;;;2.38;1.65;;;18.90;54.10;;;;;;5041898;28;20056;-69
2023/12/09 02:35:56;;;;;;;2.50;1.77;;;18.90;54.20;;;;;;5043223;28;20033;-69
2023/12/09 02:38:23;;;;;;;2.67;1.88;;;18.90;54.20;;;;;;5039171;28;20041;-68
2023/12/09 02:40:50;;;;;;;2.65;1.80;;;18.80;54.10;;;;;;5042134;28;20025;-69
2023/12/09 02:43:16;;;;;;;3.05;1.90;;;18.80;54.10;;;;;;5040249;28;20032;-69
2023/12/09 02:45:45;;;;;;;2.90;2.00;;;18.80;54.10;;;;;;5038306;28;20082;-69
2023/12/09 02:48:11;;;;;;;3.00;1.80;;;18.80;54.10;;;;;;5042334;28;20084;-69
2023/12/09 02:50:36;;;;;;;2.20;1.60;;;18.80;54.10;;;;;;5039655;28;20045;-69
2023/12/09 02:53:02;;;;;;;2.25;1.50;;;18.80;54.10;;;;;;5041854;28;20481;-69
2023/12/09 02:55:28;;;;;;;2.47;1.83;;;18.80;54.10;;;;;;5040748;28;20146;-69
2023/12/09 02:57:54;;;;;;;2.97;1.80;;;18.80;54.10;;;;;;5040762;28;20607;-69
2023/12/09 03:00:19;;;;;;;2.70;1.67;;;18.80;54.10;;;;;;5038981;28;20026;-69
2023/12/09 03:02:45;;;;;;;2.63;1.52;;;18.80;54.20;;;;;;5039684;28;20105;-69
2023/12/09 03:05:10;;;;;;;2.85;1.80;;;18.80;54.10;;;;;;5040480;28;20037;-69
2023/12/09 03:07:36;;;;;;;2.83;1.60;;;18.80;54.20;;;;;;5038081;28;20602;-69
2023/12/09 03:10:02;;;;;;;2.60;1.90;;;18.80;54.20;;;;;;5040308;28;20083;-69
2023/12/09 03:12:27;;;;;;;2.63;1.50;;;18.80;54.20;;;;;;5039318;28;20514;-69
2023/12/09 03:14:53;;;;;;;2.60;1.48;;;18.80;54.20;;;;;;5041193;28;20033;-69
2023/12/09 03:17:19;;;;;;;2.58;1.70;;;18.80;54.20;;;;;;5040363;28;20028;-66
2023/12/09 03:19:44;;;;;;;3.50;1.60;;;18.80;54.20;;;;;;5040561;28;20064;-66
2023/12/09 03:22:10;;;;;;;2.92;1.90;;;18.80;54.20;;;;;;5039689;28;20017;-65
2023/12/09 03:24:36;;;;;;;2.40;1.67;;;18.80;54.20;;;;;;5040983;28;20477;-66
2023/12/09 03:27:01;;;;;;;2.97;1.80;;;18.80;54.20;;;;;;5037841;28;20434;-66
2023/12/09 03:29:27;;;;;;;2.42;1.73;;;18.80;54.20;;;;;;5038133;28;20068;-66
2023/12/09 03:31:52;;;;;;;2.35;1.58;;;18.80;54.20;;;;;;5038194;28;20051;-67
2023/12/09 03:34:18;;;;;;;2.55;1.65;;;18.80;54.20;;;;;;5038571;28;20490;-66
2023/12/09 03:36:43;;;;;;;2.70;1.80;;;18.80;54.20;;;;;;5041111;28;20026;-66
2023/12/09 03:39:09;;;;;;;2.28;1.50;;;18.70;54.20;;;;;;5040186;28;20199;-66
2023/12/09 03:41:35;;;;;;;2.25;1.50;;;18.80;54.30;;;;;;5040341;28;20029;-65
2023/12/09 03:44:02;;;;;;;2.08;1.58;;;18.70;54.20;;;;;;5038942;28;20576;-66
2023/12/09 03:46:27;;;;;;;2.05;1.58;;;18.70;54.20;;;;;;5037839;28;20025;-65
2023/12/09 03:48:53;;;;;;;2.72;1.67;;;18.80;54.30;;;;;;5041276;28;20017;-65
2023/12/09 03:51:19;;;;;;;2.15;1.48;;;18.70;54.20;;;;;;5039852;28;20090;-65
2023/12/09 03:53:44;;;;;;;2.40;1.60;;;18.70;54.20;;;;;;5038639;28;20026;-67
2023/12/09 03:56:11;;;;;;;1.92;1.40;;;18.70;54.20;;;;;;5041366;28;20029;-66
2023/12/09 03:58:37;;;;;;;2.22;1.40;;;18.70;54.20;;;;;;5040911;28;20033;-66
2023/12/09 04:01:03;;;;;;;2.38;1.52;;;18.80;54.30;;;;;;5038784;28;20086;-66
2023/12/09 04:03:29;;;;;;;1.98;1.40;;;18.70;54.20;;;;;;5038497;28;20545;-65
2023/12/09 04:05:54;;;;;;;2.63;1.70;;;18.70;54.20;;;;;;5041025;28;20029;-65
2023/12/09 04:08:20;;;;;;;2.28;1.50;;;18.70;54.20;;;;;;5038318;28;20059;-66
2023/12/09 04:10:46;;;;;;;2.22;1.40;;;18.80;54.30;;;;;;5037256;28;20117;-66
2023/12/09 04:13:11;;;;;;;1.95;1.40;;;18.70;54.20;;;;;;5040326;28;20374;-66
2023/12/09 04:15:40;;;;;;;2.40;1.40;;;18.70;54.20;;;;;;5039978;28;20032;-65
2023/12/09 04:18:06;;;;;;;1.75;1.20;;;18.80;54.20;;;;;;5039251;28;20036;-66
2023/12/09 04:20:32;;;;;;;2.40;1.50;;;18.70;54.20;;;;;;5039776;28;20028;-66
2023/12/09 04:22:57;;;;;;;2.03;1.30;;;18.80;54.80;;;;;;5037175;28;20100;-65
2023/12/09 04:25:24;;;;;;;1.98;1.38;;;18.70;54.70;;;;;;5036668;28;20107;-65
2023/12/09 04:27:54;;;;;;;1.50;1.20;;;18.80;54.30;;;;;;5037693;28;20075;-69
2023/12/09 04:30:21;;;;;;;1.65;1.20;;;18.70;54.20;;;;;;5036708;28;20033;-68
2023/12/09 04:32:47;;;;;;;2.08;1.50;;;18.80;54.30;;;;;;5036857;28;20102;-69
2023/12/09 04:35:13;;;;;;;1.98;1.33;;;18.70;54.20;;;;;;5037132;28;20052;-69
2023/12/09 04:37:39;;;;;;;2.05;1.38;;;18.70;54.20;;;;;;5036565;28;20043;-67
2023/12/09 04:40:08;;;;;;;1.48;1.27;;;18.70;54.20;;;;;;5039272;28;20104;-66
2023/12/09 04:42:33;;;;;;;2.22;1.30;;;18.70;54.20;;;;;;5039776;28;20048;-67
2023/12/09 04:44:59;;;;;;;1.80;1.23;;;18.70;54.20;;;;;;5037837;28;20029;-66
2023/12/09 04:47:24;;;;;;;2.10;1.35;;;18.70;54.20;;;;;;5036231;28;20464;-65
2023/12/09 04:49:50;;;;;;;2.58;1.30;;;18.70;54.20;;;;;;5040406;28;20024;-65
2023/12/09 04:52:16;;;;;;;1.83;1.30;;;18.70;54.20;;;;;;5038850;28;20099;-67
2023/12/09 04:54:41;;;;;;;1.75;1.20;;;18.80;54.30;;;;;;5037908;28;20021;-65
2023/12/09 04:57:07;;;;;;;1.55;1.17;;;18.70;54.20;;;;;;5038853;28;20037;-65
2023/12/09 04:59:33;;;;;;;2.38;1.40;;;18.70;54.20;;;;;;5038818;28;20025;-65
2023/12/09 05:01:59;;;;;;;1.83;1.38;;;18.70;54.20;;;;;;5037317;28;20396;-65
2023/12/09 05:04:24;;;;;;;1.98;1.30;;;18.70;54.20;;;;;;5035924;28;20025;-65
2023/12/09 05:06:50;;;;;;;2.00;1.38;;;18.80;54.30;;;;;;5040623;28;20124;-65
2023/12/09 05:09:15;;;;;;;1.92;1.23;;;18.70;54.30;;;;;;5039952;28;20397;-66
2023/12/09 05:11:41;;;;;;;1.85;1.45;;;18.70;54.20;;;;;;5037414;28;20040;-65
2023/12/09 05:14:07;;;;;;;2.00;1.40;;;18.70;54.20;;;;;;5036264;28;20102;-65
2023/12/09 05:16:33;;;;;;;1.80;1.25;;;18.70;54.20;;;;;;5037160;28;20127;-66
2023/12/09 05:18:58;;;;;;;2.50;1.40;;;18.70;54.30;;;;;;5036699;28;20029;-65
2023/12/09 05:21:24;;;;;;;1.90;1.25;;;18.70;54.20;;;;;;5039951;28;20068;-66
2023/12/09 05:23:50;;;;;;;1.85;1.23;;;18.70;54.30;;;;;;5038000;28;20025;-67
2023/12/09 05:26:25;;;;;;;1.77;1.27;;;18.70;54.20;;;;;;5035811;28;20040;-65
2023/12/09 05:28:52;;;;;;;2.33;1.50;;;18.70;54.30;;;;;;5037205;28;20132;-67
2023/12/09 05:31:18;;;;;;;2.20;1.38;;;18.80;54.30;;;;;;5038593;28;20028;-66
2023/12/09 05:33:43;;;;;;;2.33;1.40;;;18.70;54.30;;;;;;5037249;28;20547;-65
2023/12/09 05:36:09;;;;;;;2.00;1.38;;;18.80;54.30;;;;;;5036865;28;20401;-65
2023/12/09 05:38:35;;;;;;;1.58;1.25;;;18.70;54.30;;;;;;5037128;28;20031;-69
2023/12/09 05:41:01;;;;;;;1.55;1.20;;;18.80;54.40;;;;;;5039551;28;20025;-69
2023/12/09 05:43:27;;;;;;;2.25;1.27;;;18.70;54.30;;;;;;5038391;28;20033;-69
2023/12/09 05:45:52;;;;;;;1.83;1.30;;;18.80;54.40;;;;;;5036866;28;20489;-69
2023/12/09 05:48:18;;;;;;;2.05;1.15;;;18.80;54.40;;;;;;5036996;28;20536;-65
2023/12/09 05:50:44;;;;;;;2.05;1.35;;;18.80;54.40;;;;;;5038203;28;20068;-66
2023/12/09 05:53:10;;;;;;;1.73;1.20;;;18.80;54.50;;;;;;5040673;28;20146;-66
2023/12/09 05:55:36;;;;;;;2.15;1.33;;;18.80;54.40;;;;;;5037777;28;20087;-65
2023/12/09 05:58:03;;;;;;;2.10;1.40;;;18.80;54.50;;;;;;5037882;28;20025;-65
2023/12/09 06:00:29;;;;;;;2.50;1.60;;;18.80;54.50;;;;;;5038354;28;20087;-65
2023/12/09 06:02:54;;;;;;;1.65;1.27;;;18.80;54.50;;;;;;5037824;28;20025;-66
2023/12/09 06:05:20;;;;;;;2.38;1.40;;;18.80;54.50;;;;;;5038209;28;20500;-65
2023/12/09 06:07:46;;;;;;;2.25;1.30;;;18.80;54.50;;;;;;5043692;28;20025;-65
2023/12/09 06:10:11;;;;;;;2.17;1.30;;;18.80;54.50;;;;;;5041412;28;20060;-66
2023/12/09 06:12:37;;;;;;;2.25;1.35;;;18.80;54.50;;;;;;5040494;28;20548;-65
2023/12/09 06:15:04;;;;;;;2.38;1.45;;;18.80;54.50;;;;;;5041796;28;20078;-65
2023/12/09 06:17:29;;;;;;;1.70;1.27;;;18.80;54.50;;;;;;5041311;28;20473;-66
2023/12/09 06:19:55;;;;;;;1.98;1.35;;;18.80;54.50;;;;;;5041898;28;20037;-67
2023/12/09 06:22:20;;;;;;;1.75;1.30;;;18.80;54.60;;;;;;5043042;28;20021;-65
2023/12/09 06:24:46;;;;;;;2.50;1.30;;;18.80;54.60;;;;;;5040306;28;20074;-65
2023/12/09 06:27:13;;;;;;;2.38;1.50;;;18.80;54.60;;;;;;5040563;28;20033;-66
2023/12/09 06:29:38;;;;;;;2.03;1.30;;;18.80;54.60;;;;;;5042614;28;20033;-65
2023/12/09 06:32:05;;;;;;;1.80;1.33;;;18.80;54.60;;;;;;5040581;28;20037;-65
2023/12/09 06:34:30;;;;;;;2.00;1.38;;;18.80;54.60;;;;;;5040504;28;20115;-66
2023/12/09 06:36:56;;;;;;;1.95;1.23;;;18.80;54.60;;;;;;5038306;28;20158;-66
2023/12/09 06:39:21;;;;;;;1.80;1.30;;;18.80;54.60;;;;;;5038441;28;20029;-65
2023/12/09 06:41:48;;;;;;;2.30;1.45;;;18.80;54.60;;;;;;5039686;28;20044;-66
2023/12/09 06:44:14;;;;;;;2.05;1.42;;;18.80;54.60;;;;;;5041903;28;20022;-66
2023/12/09 06:46:40;;;;;;;1.75;1.20;;;18.80;54.60;;;;;;5042261;28;20021;-66
2023/12/09 06:49:07;;;;;;;2.15;1.27;;;18.80;54.50;;;;;;5036408;28;20029;-67
2023/12/09 06:51:32;;;;;;;2.15;1.20;;;18.80;54.60;;;;;;5071322;28;20147;-67
2023/12/09 06:54:00;;;;;;;2.55;1.52;;;18.80;55.00;;;;;;5042296;28;20124;-67
2023/12/09 06:56:26;;;;;;;2.10;1.20;;;18.80;54.50;;;;;;5039430;28;20044;-67
2023/12/09 06:58:52;;;;;;;1.85;1.30;;;18.80;54.60;;;;;;5038926;28;20029;-69
2023/12/09 07:01:22;;;;;;;1.83;1.35;;;18.80;54.50;;;;;;5041356;28;20025;-69
2023/12/09 07:03:49;;;;;;;2.45;1.50;;;18.80;54.50;;;;;;5036904;28;20029;-69
2023/12/09 07:06:21;;;;;;;1.95;1.20;;;18.80;54.50;;;;;;5042383;28;20104;-68
2023/12/09 07:08:47;;;;;;;1.88;1.30;;;18.80;54.50;;;;;;5040551;28;20408;-67
2023/12/09 07:11:12;;;;;;;2.25;1.30;;;18.80;54.50;;;;;;5038548;28;20040;-67
2023/12/09 07:13:38;;;;;;;2.45;1.50;;;18.80;55.00;;;;;;5040328;28;20457;-66
2023/12/09 07:16:08;;;;;;;2.38;1.30;;;18.80;54.50;;;;;;5039968;28;20033;-67
2023/12/09 07:18:33;;;;;;;1.45;1.20;;;18.80;54.50;;;;;;5039339;28;20493;-67
2023/12/09 07:20:59;;;;;;;2.38;1.42;;;18.80;54.50;;;;;;5040295;28;20093;-67
2023/12/09 07:23:25;;;;;;;1.90;1.20;;;18.80;54.50;;;;;;5041796;28;20029;-67
2023/12/09 07:25:51;;;;;;;1.95;1.40;;;18.80;54.50;;;;;;5040595;28;20112;-67
2023/12/09 07:28:16;;;;;;;2.50;1.48;;;18.80;54.50;;;;;;5040988;28;20556;-67
2023/12/09 07:30:42;;;;;;;2.25;1.48;;;18.80;54.50;;;;;;5038757;28;20357;-67
2023/12/09 07:33:08;;;;;;;1.77;1.30;;;18.80;54.50;;;;;;5039815;28;20481;-67
2023/12/09 07:35:33;;;;;;;1.75;1.20;;;18.80;54.50;;;;;;5039637;28;20485;-67
2023/12/09 07:37:59;;;;;;;1.80;1.25;;;18.80;54.50;;;;;;5039196;28;20487;-67
2023/12/09 07:40:24;;;;;;;1.83;1.30;;;18.80;54.50;;;;;;5039874;28;20033;-67
2023/12/09 07:42:50;;;;;;;2.13;1.33;;;18.80;54.50;;;;;;5038914;28;20155;-67
2023/12/09 07:45:15;;;;;;;2.08;1.35;;;18.80;54.60;;;;;;5040540;28;20583;-66
2023/12/09 07:47:41;;;;;;;2.15;1.40;;;18.80;54.50;;;;;;5039437;28;20386;-67
2023/12/09 07:50:07;;;;;;;1.80;1.30;;;18.80;54.50;;;;;;5044280;28;20140;-67
2023/12/09 07:52:32;;;;;;;1.95;1.20;;;18.80;54.50;;;;;;5041291;28;20029;-66
2023/12/09 07:54:58;;;;;;;2.15;1.23;;;18.80;54.50;;;;;;5040643;28;20041;-67
2023/12/09 07:57:24;;;;;;;2.05;1.33;;;18.80;54.50;;;;;;5039562;28;20086;-67
2023/12/09 07:59:49;;;;;;;1.70;1.02;;;18.80;54.50;;;;;;5041195;28;20020;-66
2023/12/09 08:02:15;;;;;;;2.28;1.35;;;18.80;54.50;;;;;;5038336;28;20048;-66
2023/12/09 08:04:40;;;;;;;1.48;1.15;;;18.80;54.50;;;;;;5036653;28;20814;-67
2023/12/09 08:07:06;;;;;;;1.70;1.15;;;18.80;54.40;;;;;;5037956;28;20029;-66
2023/12/09 08:09:31;;;;;;;2.28;1.20;;;18.80;54.40;;;;;;5039810;28;20025;-69
2023/12/09 08:11:57;;;;;;;1.50;1.10;;;18.80;54.40;;;;;;5038880;28;20162;-69
2023/12/09 08:14:23;;;;;;;2.15;1.10;;;18.80;54.30;;;;;;5037157;28;20043;-69
2023/12/09 08:16:48;;;;;;;1.92;1.23;;;18.80;54.30;;;;;;5037580;28;20033;-69
2023/12/09 08:19:14;;;;;;;2.20;1.23;;;18.80;54.30;;;;;;5034691;28;20029;-66
2023/12/09 08:21:40;;;;;;;2.13;1.30;;;18.80;54.30;;;;;;5036263;28;20389;-65
2023/12/09 08:24:06;;;;;;;2.10;1.20;;;18.80;54.40;;;;;;5037630;28;20387;-65
2023/12/09 08:26:32;;;;;;;1.98;1.30;;;18.80;54.30;;;;;;5041339;28;20461;-65
2023/12/09 08:28:58;;;;;;;2.33;1.20;;;18.80;54.30;;;;;;5037629;28;20033;-65
2023/12/09 08:31:24;;;;;;;1.65;1.08;;;18.80;54.30;;;;;;5038742;28;20433;-65
2023/12/09 08:33:49;;;;;;;2.25;1.38;;;18.80;54.30;;;;;;5038157;28;20052;-65
2023/12/09 08:36:15;;;;;;;2.17;1.35;;;18.80;54.30;;;;;;5038246;28;20367;-66
2023/12/09 08:38:40;;;;;;;1.88;1.20;;;18.80;54.40;;;;;;5038519;28;20113;-65
2023/12/09 08:41:06;;;;;;;2.25;1.13;;;18.80;54.30;;;;;;5045665;28;20033;-65
2023/12/09 08:43:32;;;;;;;2.00;1.30;;;18.80;54.30;;;;;;5038750;28;20032;-66
2023/12/09 08:45:57;;;;;;;3.03;1.10;;;18.80;54.30;;;;;;5036363;28;20108;-66
2023/12/09 08:48:23;;;;;;;2.00;1.40;;;18.80;54.40;;;;;;5033712;28;20025;-65
2023/12/09 08:50:49;;;;;;;1.98;1.25;;;18.80;54.40;;;;;;5038942;28;20064;-65
2023/12/09 08:53:15;;;;;;;2.15;1.30;;;18.80;54.30;;;;;;5037140;28;20385;-65
2023/12/09 08:55:41;;;;;;;1.90;1.30;;;18.80;54.40;;;;;;5039692;28;20041;-65
2023/12/09 08:58:08;;;;;;;1.40;1.00;;;18.80;54.40;;;;;;5039317;28;20511;-65
2023/12/09 09:00:33;;;;;;;1.67;1.17;;;18.80;54.40;;;;;;5038548;28;20025;-65
2023/12/09 09:02:59;;;;;;;1.70;1.10;;;18.80;54.40;;;;;;5038568;28;20026;-66
2023/12/09 09:05:24;;;;;;;2.13;1.20;;;18.80;54.40;;;;;;5035939;28;20032;-65
2023/12/09 09:07:51;;;;;;;1.92;1.30;;;18.80;54.40;;;;;;5039365;28;20057;-66
2023/12/09 09:10:18;;;;;;;2.08;1.25;;;18.80;54.90;;;;;;5040566;28;20021;-65
2023/12/09 09:12:44;;;;;;;2.50;1.50;;;18.80;54.40;;;;;;5038056;28;20036;-65
2023/12/09 09:15:10;;;;;;;1.73;1.20;;;18.80;54.90;;;;;;5039506;28;20447;-65
2023/12/09 09:17:35;;;;;;;2.10;1.20;;;18.80;54.40;;;;;;5037469;28;20083;-64
2023/12/09 09:20:03;;;;;;;2.05;1.35;;;18.80;54.40;;;;;;5036977;28;20026;-68
2023/12/09 09:22:28;;;;;;;2.00;1.30;;;18.80;54.50;;;;;;5038123;28;20024;-69
2023/12/09 09:24:54;;;;;;;2.25;1.20;;;18.80;54.50;;;;;;5038722;28;20021;-69
2023/12/09 09:27:20;;;;;;;2.15;1.10;;;18.80;54.50;;;;;;5037064;28;20442;-69
2023/12/09 09:29:46;;;;;;;1.83;1.20;;;18.80;54.50;;;;;;5038995;28;20190;-66
2023/12/09 09:32:11;;;;;;;1.70;1.02;;;18.80;54.50;;;;;;5037518;28;20029;-66
2023/12/09 09:34:37;;;;;;;2.00;1.30;;;18.80;54.50;;;;;;5036756;28;20112;-65
2023/12/09 09:37:02;;;;;;;1.90;1.20;;;18.80;54.50;;;;;;5038646;28;20034;-65
2023/12/09 09:39:28;;;;;;;2.00;1.20;;;18.80;54.70;;;;;;5038394;28;20092;-65
2023/12/09 09:42:09;;;;;;;2.20;1.30;;;18.90;54.90;;;;;;5039928;28;20017;-65
2023/12/09 09:44:38;;;;;;;2.13;1.40;;;18.90;54.90;;;;;;5041195;28;20504;-65
2023/12/09 09:47:04;;;;;;;;;;;19.10;54.80;;;;;;5042684;28;20024;-65
2023/12/09 09:49:31;;;;;;;1.83;1.20;;;19.20;54.70;;;;;;5042024;28;20031;-65
2023/12/09 09:51:59;;;;;;;2.10;1.30;;;19.30;54.40;;;;;;5041543;28;20845;-66
2023/12/09 09:54:28;;;;;;;1.80;1.20;;;19.40;54.20;;;;;;5044165;23;20053;-68
2023/12/09 09:59:22;;;;;;;2.20;1.30;;;19.60;53.90;;;;;;4978972;28;20447;-65
2023/12/09 10:01:48;;;;;;;1.85;1.38;;;19.70;53.50;;;;;;4999440;28;20018;-64
2023/12/09 10:04:13;;;;;;;2.72;1.48;;;19.90;53.20;;;;;;4981848;28;20031;-68
2023/12/09 10:06:43;;;;;;;1.80;1.20;;;20.00;53.10;;;;;;4982259;28;20453;-69
2023/12/09 10:09:08;;;;;;;;;;;20.20;52.80;;;;;;4982553;28;20030;-69
2023/12/09 10:11:34;;;;;;;1.40;1.10;;;20.30;52.50;;;;;;4982883;28;20828;-69
2023/12/09 10:14:00;;;;;;;3.53;1.60;;;20.40;52.20;;;;;;4981928;28;20455;-69
2023/12/09 10:16:25;;;;;;;2.50;1.50;;;20.50;52.10;;;;;;4999059;28;20106;-69
2023/12/09 10:18:52;;;;;;;1.70;1.30;;;20.50;52.30;;;;;;4982929;28;20031;-69
2023/12/09 10:21:18;;;;;;;3.45;1.83;;;20.60;51.90;;;;;;4984819;28;20050;-69
2023/12/09 10:23:45;;;;;;;2.33;1.50;;;20.60;51.90;;;;;;4980518;28;20434;-69
2023/12/09 10:26:12;;;;;;;2.05;1.40;;;20.70;51.80;;;;;;4981566;28;20381;-69
2023/12/09 10:28:37;;;;;;;2.30;1.50;;;20.70;51.70;;;;;;4982024;28;20569;-68
2023/12/09 10:31:03;;;;;;;3.60;1.70;;;20.80;51.70;;;;;;4981782;28;20106;-69
2023/12/09 10:33:32;;;;;;;2.30;1.55;;;20.90;51.50;;;;;;4997667;28;20121;-69
2023/12/09 10:36:00;;;;;;;1.75;1.40;;;20.80;51.50;;;;;;4981232;28;20033;-69
2023/12/09 10:38:26;;;;;;;2.85;1.30;;;20.70;51.40;;;;;;4982305;28;20038;-68
2023/12/09 10:40:53;;;;;;;2.03;1.42;;;20.70;51.70;;;;;;4980886;28;20069;-68
2023/12/09 10:43:20;;;;;;;2.67;1.63;;;20.90;51.70;;;;;;4980616;28;20049;-68
2023/12/09 10:45:45;;;;;;;2.25;1.40;;;21.00;51.30;;;;;;4977883;28;20030;-69
2023/12/09 10:48:11;;;;;;;2.70;1.50;;;21.10;51.20;;;;;;4980913;28;20554;-68
2023/12/09 10:50:37;;;;;;;2.58;1.50;;;21.30;50.90;;;;;;4980431;28;20042;-69
2023/12/09 10:53:04;;;;;;;2.17;1.40;;;21.50;50.60;;;;;;4980823;28;20435;-68
2023/12/09 10:55:30;;;;;;;1.75;1.17;;;21.60;50.30;;;;;;4982311;28;20095;-69
2023/12/09 10:57:56;;;;;;;2.03;1.27;;;21.70;50.10;;;;;;4978883;28;20488;-69
2023/12/09 11:00:22;;;;;;;2.00;1.20;;;21.80;49.90;;;;;;4994783;28;20042;-68
2023/12/09 11:02:49;;;;;;;2.60;1.50;;;21.80;49.80;;;;;;4980438;28;20116;-68
2023/12/09 11:05:15;;;;;;;2.10;1.40;;;21.90;49.70;;;;;;4982024;28;20026;-68
2023/12/09 11:07:42;;;;;;;3.00;1.55;;;21.90;49.50;;;;;;4980336;28;20150;-68
2023/12/09 11:10:10;;;;;;;2.30;1.40;;;21.90;49.70;;;;;;4980095;28;20025;-68
2023/12/09 11:12:36;;;;;;;2.50;1.50;;;22.00;49.60;;;;;;4981913;28;20039;-68
2023/12/09 11:15:13;;;;;;;3.35;1.50;;;22.10;49.60;;;;;;4981110;28;20027;-68
2023/12/09 11:17:41;;;;;;;2.20;1.48;;;22.10;49.40;;;;;;4978990;28;20063;-68
2023/12/09 11:20:09;;;;;;;2.78;1.50;;;22.20;49.40;;;;;;4979907;28;20019;-68
2023/12/09 11:22:46;;;;;;;2.47;1.40;;;22.20;49.30;;;;;;4996089;28;20518;-68
2023/12/09 11:25:21;;;;;;;2.22;1.40;;;22.30;49.10;;;;;;4981576;28;20041;-68
2023/12/09 11:27:52;;;;;;;2.63;1.60;;;22.30;49.00;;;;;;4994667;28;20057;-68
2023/12/09 11:30:36;;;;;;;2.55;1.60;;;22.30;49.50;;;;;;4979637;28;20111;-67
2023/12/09 11:33:05;;;;;;;2.25;1.40;;;22.40;48.90;;;;;;4979360;28;20022;-68
2023/12/09 11:35:35;;;;;;;;;;;22.40;48.80;;;;;;4978466;28;20117;-67
2023/12/09 11:38:04;;;;;;;2.25;1.40;;;22.50;48.80;;;;;;4979054;28;19914;-68
2023/12/09 11:40:31;;;;;;;2.35;1.30;;;22.60;48.70;;;;;;4981458;28;20093;-68
2023/12/09 11:43:08;;;;;;;1.95;1.20;;;22.60;48.60;;;;;;4981337;28;20061;-68
2023/12/09 11:45:38;;;;;;;2.55;1.58;;;22.60;48.50;;;;;;4980881;28;20057;-69
2023/12/09 11:48:05;;;;;;;2.60;1.40;;;22.60;48.50;;;;;;4982682;28;20637;-69
2023/12/09 11:50:30;;;;;;;2.08;1.33;;;22.60;48.40;;;;;;4994943;28;20438;-68
2023/12/09 11:52:56;;;;;;;2.83;1.50;;;22.50;48.40;;;;;;4978927;28;20273;-69
2023/12/09 11:55:22;;;;;;;2.80;1.52;;;22.50;48.40;;;;;;4979067;28;20038;-68
2023/12/09 11:57:47;;;;;;;2.47;1.58;;;22.50;48.40;;;;;;4981435;28;20026;-69
2023/12/09 12:00:15;;;;;;;2.90;1.70;;;22.40;48.40;;;;;;4996192;28;20438;-67
2023/12/09 12:02:44;;;;;;;2.50;1.50;;;22.40;48.40;;;;;;4979104;28;20049;-67
2023/12/09 12:05:11;;;;;;;2.45;1.50;;;22.40;48.50;;;;;;4980635;28;20418;-68
2023/12/09 12:07:37;;;;;;;3.58;1.63;;;22.40;48.50;;;;;;4979526;28;20045;-68
2023/12/09 12:10:07;;;;;;;2.88;1.52;;;22.30;48.50;;;;;;4979425;28;20030;-68
2023/12/09 12:12:33;;;;;;;2.38;1.45;;;22.40;49.10;;;;;;4980596;28;20474;-68
2023/12/09 12:14:59;;;;;;;2.08;1.40;;;22.30;48.60;;;;;;4981798;28;20092;-68
2023/12/09 12:17:24;;;;;;;2.90;1.58;;;22.30;48.60;;;;;;4980231;28;20077;-69
2023/12/09 12:19:50;;;;;;;2.35;1.50;;;22.30;48.70;;;;;;4982637;28;20053;-69
2023/12/09 12:22:17;;;;;;;2.53;1.40;;;22.20;48.70;;;;;;4981377;28;20053;-69
2023/12/09 12:24:44;;;;;;;2.67;1.42;;;22.20;48.80;;;;;;4979141;28;20030;-69
2023/12/09 12:27:09;;;;;;;2.97;1.45;;;22.20;48.80;;;;;;4977594;28;20041;-68
2023/12/09 12:29:39;;;;;;;2.70;1.55;;;22.20;48.80;;;;;;4980487;28;20026;-69
2023/12/09 12:32:11;;;;;;;2.20;1.50;;;22.20;48.80;;;;;;4980932;28;20487;-67
2023/12/09 12:34:44;;;;;;;2.80;1.50;;;22.20;48.90;;;;;;4980943;28;20046;-67
2023/12/09 12:37:10;;;;;;;3.10;1.70;;;22.10;49.00;;;;;;4980296;28;20034;-67
2023/12/09 12:39:36;;;;;;;2.40;1.60;;;22.10;49.20;;;;;;4980510;28;20037;-67
2023/12/09 12:42:02;;;;;;;3.20;1.80;;;22.00;49.20;;;;;;4980263;28;20474;-67
2023/12/09 12:44:27;;;;;;;2.60;1.80;;;22.00;49.40;;;;;;4980365;28;20027;-67
2023/12/09 12:46:53;;;;;;;2.97;2.10;;;22.10;49.40;;;;;;4980266;28;20034;-67